Time;durP1;ratioP1;P1;durP2;ratioP2;P2;SDS_P1;SDS_P2;PMS_P1;PMS_P2;Temp;Humidity;BMP_temperature;BMP_pressure;BME280_temperature;BME280_humidity;BME280_pressure;Samples;Min_cycle;Max_cycle;Signal;HPM_P1;HPM_P2
2022/09/01 00:00:49;;;;;;;3.70;1.00;;;19.30;63.60;;;;;;2099809;28;20028;-83
2022/09/01 00:01:52;;;;;;;3.97;1.90;;;19.30;62.80;;;;;;2092307;28;20036;-83
2022/09/01 00:02:53;;;;;;;3.03;0.93;;;19.40;62.70;;;;;;2086322;28;20250;-83
2022/09/01 00:03:56;;;;;;;3.40;1.20;;;19.40;62.50;;;;;;2083215;28;20389;-83
2022/09/01 00:04:58;;;;;;;5.32;1.13;;;19.40;62.50;;;;;;2091686;28;20091;-83
2022/09/01 00:05:59;;;;;;;1.85;0.70;;;19.40;62.60;;;;;;2083305;28;20803;-83
2022/09/01 00:06:59;;;;;;;4.00;1.00;;;19.40;62.50;;;;;;2083019;28;20095;-82
2022/09/01 00:08:00;;;;;;;3.07;1.13;;;19.40;62.50;;;;;;2091381;28;20033;-83
2022/09/01 00:09:05;;;;;;;3.20;0.90;;;19.40;62.70;;;;;;2090523;28;20029;-83
2022/09/01 00:10:07;;;;;;;1.92;0.70;;;19.30;62.90;;;;;;2084401;28;20029;-83
2022/09/01 00:11:09;;;;;;;2.22;0.90;;;19.30;63.00;;;;;;2081553;28;20275;-83
2022/09/01 00:12:09;;;;;;;3.33;0.95;;;19.20;63.20;;;;;;2083078;28;20037;-83
2022/09/01 00:13:10;;;;;;;2.50;0.80;;;19.20;63.20;;;;;;2079357;28;20427;-83
2022/09/01 00:14:12;;;;;;;1.90;0.87;;;19.20;63.20;;;;;;2091449;28;20033;-83
2022/09/01 00:15:13;;;;;;;3.03;0.80;;;19.20;63.20;;;;;;2098180;28;20070;-83
2022/09/01 00:16:16;;;;;;;2.58;0.90;;;19.30;63.20;;;;;;2090659;28;20090;-83
2022/09/01 00:17:17;;;;;;;2.42;1.00;;;19.30;63.00;;;;;;2099866;28;20025;-82
2022/09/01 00:18:18;;;;;;;2.60;1.10;;;19.30;63.00;;;;;;2091243;28;20269;-83
2022/09/01 00:19:19;;;;;;;2.10;1.17;;;19.30;63.10;;;;;;2091420;28;20021;-83
2022/09/01 00:20:20;;;;;;;3.45;0.80;;;19.30;63.20;;;;;;2090704;28;20028;-83
2022/09/01 00:21:32;;;;;;;2.03;0.90;;;19.30;63.20;;;;;;2089369;28;20033;-82
2022/09/01 00:22:33;;;;;;;;;;;19.20;63.20;;;;;;2092678;28;20056;-83
2022/09/01 00:23:34;;;;;;;3.83;1.00;;;19.20;63.20;;;;;;2089009;28;19920;-83
2022/09/01 00:24:35;;;;;;;2.03;0.73;;;19.30;63.10;;;;;;2091275;28;20040;-83
2022/09/01 00:25:36;;;;;;;3.13;1.03;;;19.30;63.10;;;;;;2091389;28;20104;-83
2022/09/01 00:26:37;;;;;;;1.50;0.73;;;19.30;63.90;;;;;;2099533;28;20062;-83
2022/09/01 00:27:37;;;;;;;2.03;1.17;;;19.20;63.20;;;;;;2099658;28;20025;-83
2022/09/01 00:28:39;;;;;;;1.40;0.87;;;19.10;63.40;;;;;;2087803;28;20068;-83
2022/09/01 00:29:40;;;;;;;2.90;1.08;;;19.20;63.70;;;;;;2098825;28;20055;-83
2022/09/01 00:30:40;;;;;;;2.17;0.90;;;19.10;63.60;;;;;;2099386;28;20033;-83
2022/09/01 00:31:42;;;;;;;2.17;0.80;;;19.20;63.70;;;;;;2091105;28;20033;-83
2022/09/01 00:32:45;;;;;;;2.05;0.73;;;19.20;63.70;;;;;;2091141;28;20039;-83
2022/09/01 00:33:47;;;;;;;4.20;1.02;;;19.20;63.70;;;;;;2089230;28;20052;-83
2022/09/01 00:34:48;;;;;;;3.30;1.02;;;19.20;63.60;;;;;;2091422;28;20728;-83
2022/09/01 00:35:49;;;;;;;3.90;1.48;;;19.20;63.60;;;;;;2082237;28;20255;-83
2022/09/01 00:36:50;;;;;;;5.90;1.37;;;19.20;63.60;;;;;;2091259;28;20024;-83
2022/09/01 00:37:51;;;;;;;2.03;0.73;;;19.20;63.50;;;;;;2098893;28;20032;-83
2022/09/01 00:38:52;;;;;;;2.07;0.90;;;19.20;63.40;;;;;;2093321;28;20025;-83
2022/09/01 00:39:53;;;;;;;3.53;1.00;;;19.20;63.40;;;;;;2099488;28;20340;-83
2022/09/01 00:40:54;;;;;;;2.30;0.97;;;19.20;63.40;;;;;;2099300;28;20106;-83
2022/09/01 00:41:55;;;;;;;2.87;1.00;;;19.20;63.50;;;;;;2091214;28;20087;-83
2022/09/01 00:42:55;;;;;;;5.77;0.87;;;19.20;63.50;;;;;;2106406;28;20028;-83
2022/09/01 00:44:00;;;;;;;4.27;1.00;;;19.20;63.50;;;;;;2099511;28;20070;-83
2022/09/01 00:45:01;;;;;;;1.77;0.93;;;19.20;63.60;;;;;;2099476;28;20035;-82
2022/09/01 00:46:06;;;;;;;3.72;1.05;;;19.20;63.70;;;;;;2104673;28;20709;-83
2022/09/01 00:47:07;;;;;;;2.33;0.98;;;19.10;63.70;;;;;;2099286;28;20079;-83
2022/09/01 00:48:08;;;;;;;3.53;1.10;;;19.10;63.70;;;;;;2081638;28;20255;-83
2022/09/01 00:49:18;;;;;;;4.60;1.20;;;19.10;63.90;;;;;;2087864;28;20087;-83
2022/09/01 00:50:20;;;;;;;3.70;0.88;;;19.00;64.10;;;;;;2092307;28;20254;-83
2022/09/01 00:51:21;;;;;;;2.08;0.95;;;19.10;64.10;;;;;;2082900;28;20259;-83
2022/09/01 00:52:29;;;;;;;3.28;1.05;;;19.10;63.90;;;;;;2084125;28;20401;-83
2022/09/01 00:53:31;;;;;;;2.20;1.08;;;19.10;63.90;;;;;;2092168;28;20033;-83
2022/09/01 00:54:38;;;;;;;2.03;1.23;;;19.00;64.10;;;;;;2091391;28;20258;-82
2022/09/01 00:55:40;;;;;;;1.75;0.85;;;19.00;64.30;;;;;;2091240;28;20033;-83
2022/09/01 00:56:41;;;;;;;6.82;1.20;;;19.00;64.20;;;;;;2090805;28;20262;-82
2022/09/01 00:57:43;;;;;;;4.05;0.90;;;19.00;64.20;;;;;;2091054;28;20025;-83
2022/09/01 00:58:44;;;;;;;2.00;0.90;;;19.10;64.20;;;;;;2091010;28;20021;-83
2022/09/01 00:59:50;;;;;;;1.77;0.95;;;19.00;64.20;;;;;;2090976;28;20052;-83
2022/09/01 01:00:52;;;;;;;4.95;1.10;;;19.00;64.30;;;;;;2100082;28;20032;-83
2022/09/01 01:01:54;;;;;;;1.48;0.70;;;19.00;64.40;;;;;;2091112;28;20359;-83
2022/09/01 01:02:55;;;;;;;3.33;1.00;;;19.00;64.30;;;;;;2090222;28;20039;-83
2022/09/01 01:04:01;;;;;;;3.80;0.88;;;18.90;64.50;;;;;;2099374;28;20035;-83
2022/09/01 01:05:05;;;;;;;1.80;0.90;;;18.90;64.70;;;;;;2098322;28;20025;-83
2022/09/01 01:06:07;;;;;;;2.90;1.05;;;18.90;64.90;;;;;;2082861;28;20297;-84
2022/09/01 01:07:10;;;;;;;4.97;1.17;;;18.90;64.70;;;;;;2083102;28;20750;-83
2022/09/01 01:08:11;;;;;;;3.40;1.20;;;18.90;64.70;;;;;;2075230;28;20271;-83
2022/09/01 01:09:12;;;;;;;2.88;0.90;;;18.90;65.00;;;;;;2086529;28;20293;-83
2022/09/01 01:10:14;;;;;;;3.50;0.93;;;18.80;64.90;;;;;;2090891;28;20025;-83
2022/09/01 01:11:16;;;;;;;;;;;18.80;64.80;;;;;;2086087;28;20337;-83
2022/09/01 01:12:17;;;;;;;3.45;0.90;;;18.80;65.00;;;;;;2082754;28;19912;-83
2022/09/01 01:13:19;;;;;;;3.10;1.10;;;18.90;64.90;;;;;;2096542;28;20308;-83
2022/09/01 01:14:20;;;;;;;1.70;0.80;;;18.80;65.00;;;;;;2099261;28;20082;-83
2022/09/01 01:15:21;;;;;;;6.80;1.08;;;18.80;65.00;;;;;;2099138;28;20439;-82
2022/09/01 01:16:25;;;;;;;2.77;1.00;;;18.80;65.00;;;;;;2098333;28;20032;-83
2022/09/01 01:17:26;;;;;;;4.50;1.00;;;18.80;65.10;;;;;;2099509;28;20355;-83
2022/09/01 01:18:26;;;;;;;4.22;1.33;;;18.80;65.20;;;;;;2098979;28;20257;-82
2022/09/01 01:24:05;;;;;;;4.45;1.02;;;18.90;64.80;;;;;;2107471;28;20309;-84
2022/09/01 01:25:06;;;;;;;3.30;0.90;;;18.80;64.90;;;;;;2099056;28;20094;-83
2022/09/01 01:26:09;;;;;;;1.90;0.90;;;18.80;65.00;;;;;;2082661;28;20259;-83
2022/09/01 01:27:11;;;;;;;1.85;0.90;;;18.80;65.10;;;;;;2082314;28;20033;-83
2022/09/01 01:28:21;;;;;;;3.00;0.80;;;18.80;65.10;;;;;;2085135;28;20282;-83
2022/09/01 01:29:32;;;;;;;1.80;1.00;;;18.80;65.10;;;;;;2093695;28;20029;-82
2022/09/01 01:30:34;;;;;;;4.00;1.10;;;18.70;65.10;;;;;;2099870;28;20276;-83
2022/09/01 01:31:36;;;;;;;1.95;0.90;;;18.70;65.20;;;;;;2090963;28;20261;-83
2022/09/01 01:32:42;;;;;;;3.78;1.30;;;18.80;65.30;;;;;;2091160;28;20254;-83
2022/09/01 01:33:45;;;;;;;3.58;0.90;;;18.80;65.30;;;;;;2083789;28;20080;-83
2022/09/01 01:34:47;;;;;;;2.30;0.90;;;18.80;65.30;;;;;;2083293;28;20336;-83
2022/09/01 01:35:50;;;;;;;2.63;1.08;;;18.80;65.90;;;;;;2090243;28;20348;-83
2022/09/01 01:36:51;;;;;;;4.78;1.10;;;18.80;65.10;;;;;;2082977;28;20033;-83
2022/09/01 01:37:53;;;;;;;2.05;0.88;;;18.70;65.20;;;;;;2098693;28;20289;-83
2022/09/01 01:38:58;;;;;;;3.10;1.10;;;18.70;65.30;;;;;;2090942;28;20021;-83
2022/09/01 01:39:59;;;;;;;4.32;1.20;;;18.70;65.40;;;;;;2083514;28;20255;-84
2022/09/01 01:41:01;;;;;;;2.10;1.10;;;18.70;65.30;;;;;;2088186;28;20250;-83
2022/09/01 01:42:02;;;;;;;3.92;0.93;;;18.70;65.30;;;;;;2091090;28;20383;-83
2022/09/01 01:43:04;;;;;;;2.17;1.00;;;18.70;65.30;;;;;;2081954;28;20068;-83
2022/09/01 01:44:06;;;;;;;2.55;1.05;;;18.70;65.40;;;;;;2085688;28;20020;-83
2022/09/01 01:45:11;;;;;;;2.63;1.10;;;18.70;65.20;;;;;;2090498;28;20032;-83
2022/09/01 01:46:14;;;;;;;2.60;0.90;;;18.70;65.20;;;;;;2089543;28;20088;-84
2022/09/01 01:47:16;;;;;;;3.38;0.95;;;18.60;65.40;;;;;;2083047;28;20320;-83
2022/09/01 01:48:23;;;;;;;4.60;0.90;;;18.70;65.60;;;;;;2091182;28;20273;-83
2022/09/01 01:49:27;;;;;;;3.65;1.35;;;18.70;65.60;;;;;;2089939;28;20265;-83
2022/09/01 01:50:32;;;;;;;2.92;1.17;;;18.70;65.30;;;;;;2075364;28;20366;-83
2022/09/01 01:51:33;;;;;;;3.28;1.52;;;18.70;65.30;;;;;;2082961;28;20263;-83
2022/09/01 01:52:35;;;;;;;3.97;1.23;;;18.70;65.90;;;;;;2085682;28;20258;-83
2022/09/01 01:53:36;;;;;;;2.80;1.20;;;18.70;65.10;;;;;;2107286;28;20050;-83
2022/09/01 01:54:37;;;;;;;2.30;1.00;;;18.70;65.10;;;;;;2098906;28;20107;-83
2022/09/01 01:55:40;;;;;;;4.68;1.20;;;18.70;65.30;;;;;;2090020;28;20479;-83
2022/09/01 01:56:41;;;;;;;2.75;1.13;;;18.70;65.40;;;;;;2083033;28;20029;-83
2022/09/01 01:57:48;;;;;;;7.28;1.33;;;18.70;65.30;;;;;;2082467;28;20265;-83
2022/09/01 01:58:55;;;;;;;4.65;1.42;;;18.70;65.30;;;;;;2092473;28;20025;-83
2022/09/01 01:59:56;;;;;;;3.75;1.15;;;18.70;65.30;;;;;;2091440;28;20268;-82
2022/09/01 02:00:57;;;;;;;1.95;1.10;;;18.70;65.30;;;;;;2081315;28;20581;-83
2022/09/01 02:02:02;;;;;;;2.25;1.00;;;18.70;65.20;;;;;;2082644;28;20041;-82
2022/09/01 02:03:06;;;;;;;3.28;0.90;;;18.70;65.30;;;;;;2087194;28;20043;-83
2022/09/01 02:04:08;;;;;;;4.47;1.05;;;18.70;65.20;;;;;;2082718;28;20309;-83
2022/09/01 02:05:11;;;;;;;4.45;1.67;;;18.70;65.40;;;;;;2082662;28;20270;-83
2022/09/01 02:06:12;;;;;;;3.15;0.85;;;18.70;65.40;;;;;;2086096;28;20281;-83
2022/09/01 02:07:15;;;;;;;2.20;1.00;;;18.60;65.50;;;;;;2091071;28;20654;-83
2022/09/01 02:08:19;;;;;;;1.88;1.00;;;18.60;65.60;;;;;;2082719;28;20291;-83
2022/09/01 02:09:22;;;;;;;2.35;0.95;;;18.60;65.70;;;;;;2081744;28;20426;-83
2022/09/01 02:10:29;;;;;;;4.55;1.08;;;18.60;65.60;;;;;;2082461;28;20401;-83
2022/09/01 02:11:32;;;;;;;1.80;1.00;;;18.60;65.70;;;;;;2080702;28;20643;-83
2022/09/01 02:12:34;;;;;;;2.65;1.13;;;18.50;65.90;;;;;;2091079;28;20265;-83
2022/09/01 02:13:35;;;;;;;2.70;1.27;;;18.50;66.10;;;;;;2074521;28;20279;-83
2022/09/01 02:14:37;;;;;;;2.37;1.30;;;18.50;66.20;;;;;;2084835;28;20041;-83
2022/09/01 02:15:44;;;;;;;4.35;1.00;;;18.40;66.40;;;;;;2090097;28;20029;-84
2022/09/01 02:16:45;;;;;;;2.67;1.13;;;18.40;66.50;;;;;;2097449;28;20265;-83
2022/09/01 02:17:47;;;;;;;2.83;1.17;;;18.40;66.50;;;;;;2090289;28;20266;-83
2022/09/01 02:18:50;;;;;;;4.15;0.93;;;18.40;66.50;;;;;;2082928;28;20448;-83
2022/09/01 02:19:56;;;;;;;2.22;1.10;;;18.40;66.40;;;;;;2103417;28;20718;-84
2022/09/01 02:20:58;;;;;;;2.78;0.90;;;18.40;66.30;;;;;;2098882;28;20284;-83
2022/09/01 02:21:59;;;;;;;2.80;1.05;;;18.40;66.30;;;;;;2090814;28;20269;-83
2022/09/01 02:23:09;;;;;;;4.73;1.10;;;18.40;66.40;;;;;;2089797;28;20463;-83
2022/09/01 02:24:11;;;;;;;2.25;0.98;;;18.30;66.50;;;;;;2100180;28;20489;-83
2022/09/01 02:25:15;;;;;;;3.22;1.27;;;18.30;66.60;;;;;;2107162;28;20295;-83
2022/09/01 02:26:17;;;;;;;3.30;1.05;;;18.30;66.60;;;;;;2090816;28;20163;-83
2022/09/01 02:27:22;;;;;;;6.32;0.82;;;18.30;66.60;;;;;;2091203;28;20273;-83
2022/09/01 02:28:23;;;;;;;1.02;0.88;;;18.30;66.70;;;;;;2099067;28;20272;-83
2022/09/01 02:29:28;;;;;;;1.73;1.30;;;18.30;66.90;;;;;;2106286;28;20260;-83
2022/09/01 02:30:33;;;;;;;3.30;1.10;;;18.30;66.80;;;;;;2091030;28;20048;-83
2022/09/01 02:31:38;;;;;;;7.95;1.23;;;18.30;66.70;;;;;;2091413;28;20266;-83
2022/09/01 02:32:40;;;;;;;1.42;0.80;;;18.30;66.60;;;;;;2091138;28;20273;-83
2022/09/01 02:33:45;;;;;;;3.22;1.23;;;18.40;66.50;;;;;;2086535;28;20667;-83
2022/09/01 02:34:52;;;;;;;2.75;0.88;;;18.40;66.50;;;;;;2099632;28;20254;-83
2022/09/01 02:35:56;;;;;;;3.72;1.10;;;18.30;66.60;;;;;;2095503;28;20761;-83
2022/09/01 02:36:57;;;;;;;1.33;0.90;;;18.30;66.70;;;;;;2090702;28;20305;-83
2022/09/01 02:38:00;;;;;;;3.05;1.00;;;18.30;66.50;;;;;;2082425;28;20259;-83
2022/09/01 02:39:02;;;;;;;2.83;0.95;;;18.30;66.60;;;;;;2084363;28;20033;-84
2022/09/01 02:40:05;;;;;;;1.55;0.90;;;18.30;67.50;;;;;;2092620;28;20280;-83
2022/09/01 02:41:06;;;;;;;1.83;1.00;;;18.30;66.80;;;;;;2092109;28;20082;-84
2022/09/01 02:42:07;;;;;;;3.35;1.10;;;18.30;67.00;;;;;;2091786;28;20834;-83
2022/09/01 02:43:10;;;;;;;2.47;1.20;;;18.30;66.90;;;;;;2091266;28;20029;-83
2022/09/01 02:44:13;;;;;;;2.38;1.30;;;18.30;66.80;;;;;;2088326;28;20040;-82
2022/09/01 02:45:15;;;;;;;1.52;1.10;;;18.30;66.70;;;;;;2084413;28;20266;-82
2022/09/01 02:46:16;;;;;;;5.03;1.13;;;18.20;67.10;;;;;;2083864;28;20764;-83
2022/09/01 02:47:16;;;;;;;2.05;1.08;;;18.20;67.10;;;;;;2083818;28;20033;-83
2022/09/01 02:48:17;;;;;;;3.03;1.63;;;18.30;67.00;;;;;;2083811;28;20208;-83
2022/09/01 02:49:24;;;;;;;;;;;18.30;66.90;;;;;;2085927;28;20419;-83
2022/09/01 02:50:26;;;;;;;2.00;0.82;;;18.30;66.80;;;;;;2093445;28;19915;-82
2022/09/01 02:51:27;;;;;;;3.45;1.10;;;18.30;66.80;;;;;;2096058;28;20348;-83
2022/09/01 02:52:33;;;;;;;5.13;1.23;;;18.30;66.70;;;;;;2083685;28;20040;-84
2022/09/01 02:53:35;;;;;;;5.03;1.10;;;18.30;66.60;;;;;;2093454;28;20119;-83
2022/09/01 02:54:37;;;;;;;3.55;1.48;;;18.30;66.70;;;;;;2096457;28;20361;-83
2022/09/01 02:55:40;;;;;;;4.15;1.48;;;18.30;66.80;;;;;;2083036;28;20266;-83
2022/09/01 02:56:46;;;;;;;1.98;1.10;;;18.30;66.90;;;;;;2082797;28;20029;-84
2022/09/01 02:57:49;;;;;;;2.92;1.10;;;18.20;66.90;;;;;;2086551;28;20613;-83
2022/09/01 02:58:51;;;;;;;1.73;0.98;;;18.20;67.10;;;;;;2084309;28;20262;-83
2022/09/01 02:59:54;;;;;;;4.43;1.40;;;18.20;67.00;;;;;;2084091;28;20364;-83
2022/09/01 03:00:55;;;;;;;;;;;18.20;67.10;;;;;;2090687;28;20029;-83
2022/09/01 03:01:57;;;;;;;6.80;1.35;;;18.20;67.20;;;;;;2087381;28;19904;-83
2022/09/01 03:03:00;;;;;;;2.90;1.58;;;18.30;67.10;;;;;;2091441;28;20029;-84
2022/09/01 03:04:04;;;;;;;3.60;1.25;;;18.30;67.00;;;;;;2096180;28;20490;-83
2022/09/01 03:05:06;;;;;;;2.40;1.02;;;18.30;67.00;;;;;;2091976;28;20254;-83
2022/09/01 03:06:08;;;;;;;3.22;1.20;;;18.20;67.00;;;;;;2091208;28;20250;-83
2022/09/01 03:07:09;;;;;;;3.53;1.23;;;18.30;67.00;;;;;;2083848;28;20125;-83
2022/09/01 03:08:13;;;;;;;2.50;1.30;;;18.20;67.10;;;;;;2083585;28;20258;-83
2022/09/01 03:09:16;;;;;;;2.55;1.20;;;18.30;67.10;;;;;;2083640;28;20014;-83
2022/09/01 03:10:20;;;;;;;3.45;1.25;;;18.20;67.10;;;;;;2084159;28;20324;-83
2022/09/01 03:11:23;;;;;;;1.92;1.00;;;18.30;67.10;;;;;;2084189;28;20275;-82
2022/09/01 03:12:24;;;;;;;2.90;1.35;;;18.20;67.10;;;;;;2081269;28;20358;-83
2022/09/01 03:13:26;;;;;;;2.88;1.13;;;18.20;67.20;;;;;;2083668;28;20282;-84
2022/09/01 03:14:28;;;;;;;2.60;1.75;;;18.20;67.30;;;;;;2104416;28;20074;-84
2022/09/01 03:15:29;;;;;;;2.95;1.35;;;18.20;67.30;;;;;;2092116;28;20471;-83
2022/09/01 03:16:30;;;;;;;2.55;1.23;;;18.10;67.40;;;;;;2099872;28;20337;-83
2022/09/01 03:17:31;;;;;;;3.50;1.10;;;18.10;67.50;;;;;;2100039;28;20042;-82
2022/09/01 03:18:33;;;;;;;2.40;1.13;;;18.10;67.50;;;;;;2091851;28;20029;-83
2022/09/01 03:19:39;;;;;;;3.50;1.20;;;18.10;67.60;;;;;;2091856;28;20027;-83
2022/09/01 03:20:43;;;;;;;4.70;1.23;;;18.10;67.40;;;;;;2093108;28;20406;-83
2022/09/01 03:21:45;;;;;;;4.03;1.20;;;18.10;67.70;;;;;;2092166;28;20258;-82
2022/09/01 03:22:51;;;;;;;3.05;1.20;;;18.10;67.60;;;;;;2092160;28;20345;-83
2022/09/01 03:23:56;;;;;;;4.55;1.23;;;18.10;67.60;;;;;;2092349;28;20254;-84
2022/09/01 03:24:58;;;;;;;3.20;1.13;;;18.10;67.70;;;;;;2083735;28;20594;-83
2022/09/01 03:26:00;;;;;;;3.72;1.13;;;18.10;67.70;;;;;;2085929;28;20266;-83
2022/09/01 03:27:01;;;;;;;4.43;1.30;;;18.10;67.60;;;;;;2100405;28;20572;-82
2022/09/01 03:28:04;;;;;;;2.47;1.27;;;18.10;67.70;;;;;;2100022;28;20261;-83
2022/09/01 03:29:05;;;;;;;2.38;1.25;;;18.20;67.60;;;;;;2091333;28;20090;-83
2022/09/01 03:30:07;;;;;;;4.75;1.02;;;18.20;67.50;;;;;;2075435;28;20780;-83
2022/09/01 03:31:08;;;;;;;1.95;1.00;;;18.10;67.50;;;;;;2078051;28;20030;-83
2022/09/01 03:32:09;;;;;;;2.50;1.23;;;18.10;67.60;;;;;;2091722;28;20033;-83
2022/09/01 03:33:10;;;;;;;3.00;1.40;;;18.20;67.60;;;;;;2099885;28;20028;-82
2022/09/01 03:34:11;;;;;;;4.13;1.87;;;18.20;67.50;;;;;;2091585;28;20060;-83
2022/09/01 03:35:17;;;;;;;1.45;1.10;;;18.10;67.50;;;;;;2085053;28;20033;-83
2022/09/01 03:36:19;;;;;;;2.10;1.05;;;18.10;67.70;;;;;;2094171;28;20250;-83
2022/09/01 03:37:22;;;;;;;2.67;1.20;;;18.10;67.70;;;;;;2075376;28;20025;-83
2022/09/01 03:38:24;;;;;;;1.85;1.00;;;18.10;68.70;;;;;;2090471;28;20108;-83
2022/09/01 03:39:26;;;;;;;4.57;1.23;;;18.00;68.80;;;;;;2099740;28;20758;-83
2022/09/01 03:40:31;;;;;;;4.85;1.10;;;18.00;68.20;;;;;;2091926;28;20306;-83
2022/09/01 03:41:32;;;;;;;3.25;1.40;;;18.00;68.20;;;;;;2092254;28;20020;-84
2022/09/01 03:42:35;;;;;;;1.42;1.15;;;18.00;68.10;;;;;;2082737;28;20350;-83
2022/09/01 03:43:36;;;;;;;2.70;1.13;;;18.00;68.30;;;;;;2083822;28;20116;-83
2022/09/01 03:44:39;;;;;;;4.55;1.23;;;18.00;68.40;;;;;;2099883;28;20666;-84
2022/09/01 03:45:40;;;;;;;3.72;1.35;;;17.90;68.40;;;;;;2083493;28;20057;-84
2022/09/01 03:46:42;;;;;;;2.10;1.13;;;18.00;68.60;;;;;;2083540;28;20689;-83
2022/09/01 03:47:43;;;;;;;2.72;0.95;;;18.00;68.60;;;;;;2083703;28;20348;-83
2022/09/01 03:48:50;;;;;;;2.13;0.90;;;17.90;68.50;;;;;;2099397;28;20523;-84
2022/09/01 03:49:54;;;;;;;2.17;0.85;;;17.90;68.90;;;;;;2091497;28;20037;-83
2022/09/01 03:51:00;;;;;;;1.95;1.02;;;17.80;69.00;;;;;;2092055;28;20266;-83
2022/09/01 03:52:01;;;;;;;2.20;1.35;;;17.80;69.00;;;;;;2092206;28;20305;-83
2022/09/01 03:53:02;;;;;;;7.10;1.40;;;17.90;68.90;;;;;;2083063;28;20601;-84
2022/09/01 03:54:03;;;;;;;1.97;0.90;;;17.90;68.90;;;;;;2083403;28;20383;-83
2022/09/01 03:55:05;;;;;;;3.15;1.10;;;17.90;68.80;;;;;;2083179;28;20041;-84
2022/09/01 03:56:07;;;;;;;3.38;1.27;;;17.90;68.90;;;;;;2082636;28;20037;-83
2022/09/01 03:57:09;;;;;;;1.67;0.90;;;17.90;69.10;;;;;;2089019;28;20021;-83
2022/09/01 03:58:13;;;;;;;2.45;1.30;;;17.80;69.10;;;;;;2083354;28;20321;-83
2022/09/01 03:59:18;;;;;;;2.70;1.10;;;17.90;69.00;;;;;;2084236;28;20092;-84
2022/09/01 04:00:23;;;;;;;4.82;1.30;;;17.90;68.90;;;;;;2092105;28;20624;-84
2022/09/01 04:01:31;;;;;;;2.45;1.20;;;17.90;69.10;;;;;;2091736;28;20324;-83
2022/09/01 04:02:32;;;;;;;3.05;1.40;;;17.90;69.00;;;;;;2076629;28;20275;-83
2022/09/01 04:03:33;;;;;;;2.42;1.10;;;17.90;68.90;;;;;;2082084;28;20258;-82
2022/09/01 04:04:35;;;;;;;3.03;1.20;;;17.90;68.90;;;;;;2083405;28;20025;-83
2022/09/01 04:05:37;;;;;;;4.70;1.33;;;17.90;69.00;;;;;;2091413;28;20033;-82
2022/09/01 04:06:40;;;;;;;5.60;1.40;;;17.80;69.10;;;;;;2091939;28;20366;-83
2022/09/01 04:07:43;;;;;;;7.15;1.10;;;17.90;69.20;;;;;;2083359;28;20302;-83
2022/09/01 04:08:45;;;;;;;3.40;1.33;;;17.80;69.30;;;;;;2094560;28;20265;-83
2022/09/01 04:09:46;;;;;;;1.63;1.00;;;17.80;69.20;;;;;;2082863;28;20352;-83
2022/09/01 04:10:50;;;;;;;2.60;1.30;;;17.90;69.10;;;;;;2082766;28;20270;-83
2022/09/01 04:11:52;;;;;;;4.97;1.35;;;17.90;69.00;;;;;;2092284;28;20110;-82
2022/09/01 04:12:57;;;;;;;2.03;0.90;;;17.90;68.90;;;;;;2091422;28;20751;-83
2022/09/01 04:13:59;;;;;;;2.80;1.02;;;18.00;69.00;;;;;;2087773;28;20663;-83
2022/09/01 04:15:00;;;;;;;4.45;1.08;;;18.00;68.90;;;;;;2083271;28;20346;-83
2022/09/01 04:16:01;;;;;;;6.15;0.90;;;18.00;68.90;;;;;;2088442;28;20739;-82
2022/09/01 04:18:22;;;;;;;3.17;1.00;;;17.90;68.90;;;;;;2096349;28;20158;-84
2022/09/01 04:19:25;;;;;;;4.00;1.60;;;17.90;69.10;;;;;;2098348;28;20277;-83
2022/09/01 04:20:27;;;;;;;2.28;1.13;;;17.90;69.10;;;;;;2091031;28;20029;-82
2022/09/01 04:21:30;;;;;;;4.68;0.98;;;18.00;69.10;;;;;;2091795;28;20269;-83
2022/09/01 04:22:34;;;;;;;4.80;1.40;;;18.00;69.00;;;;;;2090761;28;20076;-83
2022/09/01 04:23:35;;;;;;;3.17;1.25;;;17.90;69.30;;;;;;2083460;28;20346;-83
2022/09/01 04:24:44;;;;;;;3.53;1.40;;;17.80;69.50;;;;;;2081884;28;20281;-83
2022/09/01 04:25:47;;;;;;;2.60;1.33;;;17.70;69.70;;;;;;2086343;28;20320;-84
2022/09/01 04:26:48;;;;;;;1.92;1.00;;;17.70;70.10;;;;;;2084226;28;20266;-84
2022/09/01 04:27:54;;;;;;;2.22;1.20;;;17.70;70.10;;;;;;2089614;28;20262;-84
2022/09/01 04:28:56;;;;;;;2.80;1.30;;;17.80;70.10;;;;;;2083721;28;20030;-84
2022/09/01 04:30:00;;;;;;;;;;;17.80;69.90;;;;;;2092365;28;20870;-83
2022/09/01 04:31:07;;;;;;;2.83;1.08;;;17.80;69.70;;;;;;2099341;28;19905;-83
2022/09/01 04:32:11;;;;;;;4.10;1.20;;;17.80;69.70;;;;;;2092368;28;20250;-84
2022/09/01 04:33:17;;;;;;;3.10;1.00;;;17.80;69.70;;;;;;2095324;28;20274;-84
2022/09/01 04:34:21;;;;;;;4.68;1.40;;;17.80;69.70;;;;;;2087012;28;20592;-84
2022/09/01 04:35:31;;;;;;;3.28;1.20;;;17.90;69.70;;;;;;2083860;28;20329;-83
2022/09/01 04:36:32;;;;;;;3.80;1.50;;;17.80;69.60;;;;;;2092688;28;20843;-83
2022/09/01 04:37:36;;;;;;;4.32;1.17;;;17.80;69.60;;;;;;2093931;28;20269;-83
2022/09/01 04:38:38;;;;;;;4.60;1.20;;;17.80;69.60;;;;;;2091111;28;20057;-83
2022/09/01 04:39:47;;;;;;;1.95;1.35;;;17.90;69.80;;;;;;2097162;28;20341;-83
2022/09/01 04:40:48;;;;;;;1.88;1.48;;;17.80;69.70;;;;;;2099320;28;20021;-83
2022/09/01 04:41:51;;;;;;;3.92;1.40;;;17.80;69.70;;;;;;2091370;28;20298;-83
2022/09/01 04:42:52;;;;;;;4.78;1.23;;;17.80;69.70;;;;;;2082468;28;20278;-84
2022/09/01 04:43:55;;;;;;;3.90;1.57;;;17.80;69.80;;;;;;2091320;28;20043;-83
2022/09/01 04:44:58;;;;;;;4.35;1.60;;;17.80;69.80;;;;;;2098937;28;20032;-83
2022/09/01 04:46:00;;;;;;;3.67;1.10;;;17.90;69.80;;;;;;2099330;28;20380;-83
2022/09/01 04:47:01;;;;;;;5.13;1.67;;;17.80;69.90;;;;;;2083086;28;20269;-83
2022/09/01 04:48:04;;;;;;;4.80;1.40;;;17.80;70.10;;;;;;2086212;28;20048;-84
2022/09/01 04:49:08;;;;;;;4.20;1.23;;;17.80;70.10;;;;;;2092281;28;20048;-83
2022/09/01 04:50:16;;;;;;;3.70;1.40;;;17.70;70.20;;;;;;2083447;28;20369;-83
2022/09/01 04:51:46;;;;;;;3.42;1.17;;;17.80;70.40;;;;;;2100746;28;20248;-83
2022/09/01 04:55:29;;;;;;;4.00;1.35;;;17.70;70.70;;;;;;2100735;28;20024;-84
2022/09/01 04:56:34;;;;;;;4.35;1.33;;;17.70;70.40;;;;;;2095305;28;20320;-83
2022/09/01 04:57:49;;;;;;;3.75;1.50;;;17.80;70.20;;;;;;2093366;28;20309;-82
2022/09/01 04:58:52;;;;;;;4.88;1.48;;;17.70;70.30;;;;;;2084728;28;20254;-83
2022/09/01 04:59:55;;;;;;;3.45;1.15;;;17.70;70.40;;;;;;2083420;28;20053;-82
2022/09/01 05:00:59;;;;;;;6.00;1.60;;;17.70;70.50;;;;;;2091747;28;20659;-84
2022/09/01 05:02:00;;;;;;;1.75;1.10;;;17.80;70.50;;;;;;2086861;28;20581;-83
2022/09/01 05:03:04;;;;;;;2.55;1.42;;;17.80;70.60;;;;;;2090373;28;20293;-83
2022/09/01 05:04:26;;;;;;;2.15;1.23;;;17.70;70.70;;;;;;2088663;28;20356;-83
2022/09/01 05:05:28;;;;;;;2.60;1.10;;;17.70;70.90;;;;;;2087519;28;20021;-83
2022/09/01 05:06:29;;;;;;;2.47;1.17;;;17.70;71.00;;;;;;2091212;28;20261;-83
2022/09/01 05:07:33;;;;;;;2.50;1.50;;;17.60;71.20;;;;;;2099036;28;20052;-83
2022/09/01 05:08:34;;;;;;;2.63;1.48;;;17.60;71.40;;;;;;2090956;28;20337;-84
2022/09/01 05:09:38;;;;;;;2.85;1.42;;;17.60;71.40;;;;;;2082685;28;20034;-84
2022/09/01 05:10:57;;;;;;;2.67;1.23;;;17.60;71.40;;;;;;2096475;28;20266;-84
2022/09/01 05:12:20;;;;;;;2.25;1.35;;;17.60;71.10;;;;;;2095859;28;20277;-82
2022/09/01 05:13:22;;;;;;;4.68;1.40;;;17.60;71.20;;;;;;2094311;28;20277;-83
2022/09/01 05:14:24;;;;;;;3.72;1.42;;;17.60;71.60;;;;;;2090974;28;20281;-84
2022/09/01 05:15:25;;;;;;;2.22;1.20;;;17.60;71.60;;;;;;2082919;28;20344;-83
2022/09/01 05:16:26;;;;;;;3.60;1.50;;;17.60;71.70;;;;;;2082051;28;20475;-84
2022/09/01 05:17:32;;;;;;;1.90;1.38;;;17.60;71.60;;;;;;2083510;28;20021;-83
2022/09/01 05:18:33;;;;;;;4.13;1.33;;;17.60;71.70;;;;;;2081469;28;20274;-84
2022/09/01 05:19:34;;;;;;;3.37;1.47;;;17.60;71.50;;;;;;2084007;28;20033;-84
2022/09/01 05:20:40;;;;;;;2.47;1.30;;;17.60;71.60;;;;;;2093702;28;20674;-84
2022/09/01 05:21:46;;;;;;;2.40;1.50;;;17.60;71.80;;;;;;2083397;28;20259;-84
2022/09/01 05:22:46;;;;;;;3.72;1.60;;;17.60;71.80;;;;;;2089338;28;20352;-84
2022/09/01 05:23:49;;;;;;;3.80;1.40;;;17.60;72.00;;;;;;2090805;28;20573;-84
2022/09/01 05:24:50;;;;;;;3.95;1.85;;;17.60;72.00;;;;;;2083147;28;20436;-84
2022/09/01 05:25:53;;;;;;;2.22;1.33;;;17.50;71.90;;;;;;2084102;28;20278;-83
2022/09/01 05:26:55;;;;;;;5.25;1.50;;;17.50;71.90;;;;;;2091088;28;20033;-84
2022/09/01 05:27:56;;;;;;;2.97;1.40;;;17.60;72.00;;;;;;2089760;28;20273;-83
2022/09/01 05:29:00;;;;;;;7.03;1.80;;;17.50;72.20;;;;;;2081937;28;20092;-84
2022/09/01 05:30:07;;;;;;;2.47;1.33;;;17.50;72.10;;;;;;2088082;28;20028;-84
2022/09/01 05:31:09;;;;;;;5.63;1.35;;;17.50;72.10;;;;;;2083985;28;20736;-84
2022/09/01 05:32:11;;;;;;;4.03;1.27;;;17.50;72.10;;;;;;2084518;28;20278;-83
2022/09/01 05:33:15;;;;;;;3.85;1.50;;;17.50;72.20;;;;;;2090429;28;20043;-84
2022/09/01 05:34:25;;;;;;;4.35;1.40;;;17.50;72.20;;;;;;2078368;28;20801;-83
2022/09/01 05:35:28;;;;;;;6.50;1.85;;;17.60;72.20;;;;;;2081757;28;20270;-85
2022/09/01 05:36:32;;;;;;;2.47;1.50;;;17.60;72.10;;;;;;2097572;28;20261;-84
2022/09/01 05:37:39;;;;;;;3.90;1.55;;;17.60;72.10;;;;;;2093835;28;20033;-83